createdAt,value
2023-04-27T00:02:41.845Z,7.59
2023-04-27T00:06:44.882Z,7.58
2023-04-27T00:10:49.324Z,7.56
2023-04-27T00:14:52.662Z,7.53
2023-04-27T00:18:55.857Z,7.53
2023-04-27T00:22:58.925Z,7.53
2023-04-27T00:27:03.360Z,7.53
2023-04-27T00:31:06.589Z,7.55
2023-04-27T00:35:10.575Z,7.55
2023-04-27T00:39:13.707Z,7.55
2023-04-27T00:43:18.280Z,7.55
2023-04-27T00:47:21.621Z,7.54
2023-04-27T00:51:28.162Z,7.53
2023-04-27T00:55:31.705Z,7.52
2023-04-27T00:59:36.206Z,7.50
2023-04-27T01:03:39.426Z,7.47
2023-04-27T01:07:43.827Z,7.44
2023-04-27T01:11:46.905Z,7.42
2023-04-27T01:15:51.686Z,7.39
2023-04-27T01:19:56.798Z,7.35
2023-04-27T01:24:01.264Z,7.33
2023-04-27T01:28:04.231Z,7.28
2023-04-27T01:32:07.572Z,7.25
2023-04-27T01:36:11.743Z,7.26
2023-04-27T01:40:16.759Z,7.25
2023-04-27T01:44:21.161Z,7.23
2023-04-27T01:48:24.339Z,7.21
2023-04-27T01:52:27.397Z,7.19
2023-04-27T01:56:33.234Z,7.17
2023-04-27T02:00:36.239Z,7.14
2023-04-27T02:04:39.386Z,7.09
2023-04-27T02:08:42.531Z,7.05
2023-04-27T02:12:46.955Z,7.01
2023-04-27T02:16:51.378Z,6.97
2023-04-27T02:20:54.437Z,6.94
2023-04-27T02:24:57.387Z,6.88
2023-04-27T02:29:03.446Z,6.81
2023-04-27T02:33:07.172Z,6.73
2023-04-27T02:37:10.418Z,6.68
2023-04-27T02:41:13.455Z,6.62
2023-04-27T02:45:18.148Z,6.56
2023-04-27T02:49:21.116Z,6.49
2023-04-27T02:53:24.590Z,6.44
2023-04-27T02:57:28.856Z,6.38
2023-04-27T03:01:33.462Z,6.34
2023-04-27T03:05:37.245Z,6.24
2023-04-27T03:09:40.462Z,6.15
2023-04-27T03:13:43.456Z,6.09
2023-04-27T03:17:48.394Z,6.06
2023-04-27T03:21:51.409Z,6.04
2023-04-27T03:25:54.565Z,6.00
2023-04-27T03:29:57.668Z,5.93
2023-04-27T03:34:02.299Z,5.84
2023-04-27T03:38:05.285Z,5.76
2023-04-27T03:42:08.441Z,5.74
2023-04-27T03:46:11.493Z,5.70
2023-04-27T03:50:16.353Z,5.68
2023-04-27T03:54:19.405Z,5.63
2023-04-27T03:58:22.521Z,5.57
2023-04-27T04:02:44.049Z,5.53
2023-04-27T04:06:49.041Z,5.53
2023-04-27T04:10:52.022Z,5.54
2023-04-27T04:14:55.370Z,5.56
2023-04-27T04:18:59.223Z,5.56
2023-04-27T04:23:03.814Z,5.57
2023-04-27T04:27:06.946Z,5.57
2023-04-27T04:31:10.047Z,5.56
2023-04-27T04:35:13.328Z,5.59
2023-04-27T04:39:17.946Z,5.61
2023-04-27T04:43:21.504Z,5.61
2023-04-27T04:47:24.867Z,5.64
2023-04-27T04:51:28.579Z,5.67
2023-04-27T04:55:33.066Z,5.71
2023-04-27T04:59:39.641Z,5.75
2023-04-27T05:03:42.926Z,5.83
2023-04-27T05:07:46.115Z,5.91
2023-04-27T05:11:50.612Z,6.00
2023-04-27T05:15:54.040Z,6.12
2023-04-27T05:19:58.274Z,6.24
2023-04-27T05:24:01.566Z,6.38
2023-04-27T05:28:06.272Z,6.52
2023-04-27T05:32:09.669Z,6.72
2023-04-27T05:36:12.906Z,6.91
2023-04-27T05:40:16.604Z,7.14
2023-04-27T05:44:21.188Z,7.45
2023-04-27T05:48:24.205Z,7.75
2023-04-27T05:52:31.102Z,7.99
2023-04-27T05:56:34.200Z,8.22
2023-04-27T06:00:38.914Z,8.41
2023-04-27T06:04:41.922Z,8.60
2023-04-27T06:08:45.076Z,8.63
2023-04-27T06:12:48.061Z,8.64
2023-04-27T06:16:52.516Z,8.69
2023-04-27T06:21:01.195Z,8.73
2023-04-27T06:25:04.727Z,8.76
2023-04-27T06:29:08.453Z,8.91
2023-04-27T06:33:12.945Z,9.02
2023-04-27T06:37:17.263Z,9.17
2023-04-27T06:41:20.333Z,9.20
2023-04-27T06:45:23.412Z,9.19
2023-04-27T06:49:27.969Z,9.21
2023-04-27T06:53:32.239Z,9.27
2023-04-27T06:57:35.297Z,9.35
2023-04-27T07:01:38.608Z,9.43
2023-04-27T07:05:43.246Z,9.53
2023-04-27T07:09:46.530Z,9.64
2023-04-27T07:13:49.625Z,9.76
2023-04-27T07:17:54.092Z,9.83
2023-04-27T07:21:58.986Z,9.86
2023-04-27T07:26:02.615Z,9.86
2023-04-27T07:30:08.913Z,10.03
2023-04-27T07:34:12.441Z,10.14
2023-04-27T07:38:17.515Z,10.26
2023-04-27T07:42:22.323Z,10.40
2023-04-27T07:46:26.457Z,10.54
2023-04-27T07:50:30.226Z,10.65
2023-04-27T07:54:34.712Z,10.80
2023-04-27T07:58:38.012Z,10.87
2023-04-27T08:02:41.318Z,10.97
2023-04-27T08:06:46.778Z,11.06
2023-04-27T08:10:51.597Z,11.14
2023-04-27T08:14:54.557Z,11.19
2023-04-27T08:18:58.615Z,11.31
2023-04-27T08:23:03.223Z,11.41
2023-04-27T08:27:08.528Z,11.53
2023-04-27T08:31:11.591Z,11.61
2023-04-27T08:35:14.851Z,11.68
2023-04-27T08:39:18.315Z,11.81
2023-04-27T08:43:23.049Z,11.88
2023-04-27T08:47:35.160Z,12.02
2023-04-27T08:51:45.070Z,12.18
2023-04-27T08:55:48.196Z,12.25
2023-04-27T09:00:01.046Z,12.35
2023-04-27T09:04:06.293Z,12.47
2023-04-27T09:08:10.819Z,12.45
2023-04-27T09:12:19.004Z,12.38
2023-04-27T09:16:26.544Z,12.48
2023-04-27T09:20:29.656Z,12.50
2023-04-27T09:24:32.971Z,12.59
2023-04-27T09:28:39.717Z,12.72
2023-04-27T09:32:54.656Z,12.76
2023-04-27T09:36:58.148Z,12.92
2023-04-27T09:41:01.831Z,13.05
2023-04-27T09:45:07.967Z,12.93
2023-04-27T09:49:14.567Z,12.96
2023-04-27T09:53:23.144Z,13.00
2023-04-27T09:57:36.449Z,13.13
2023-04-27T10:01:45.016Z,13.22
2023-04-27T10:06:32.429Z,13.22
2023-04-27T10:10:44.355Z,13.25
2023-04-27T10:14:52.150Z,13.42
2023-04-27T10:18:56.416Z,13.42
2023-04-27T10:23:01.807Z,13.44
2023-04-27T10:27:07.875Z,13.41
2023-04-27T10:31:12.131Z,13.27
2023-04-27T10:35:15.206Z,13.33
2023-04-27T10:39:29.825Z,13.50
2023-04-27T10:43:39.076Z,13.48
2023-04-27T10:47:43.788Z,13.58
2023-04-27T10:51:47.689Z,13.72
2023-04-27T10:55:56.517Z,13.79
2023-04-27T11:04:18.675Z,14.06
2023-04-27T11:08:22.077Z,14.07
2023-04-27T11:12:25.180Z,14.04
2023-04-27T11:16:29.637Z,14.00
2023-04-27T11:20:35.250Z,13.91
2023-04-27T11:24:38.597Z,13.84
2023-04-27T11:28:42.385Z,13.65
2023-04-27T11:32:45.407Z,13.66
2023-04-27T11:37:14.335Z,13.68
2023-04-27T11:41:20.200Z,13.73
2023-04-27T11:45:27.515Z,13.89
2023-04-27T11:49:30.579Z,13.95
2023-04-27T11:53:36.551Z,13.97
2023-04-27T11:57:40.441Z,13.99
2023-04-27T12:01:43.564Z,13.97
2023-04-27T12:05:50.345Z,14.09
2023-04-27T12:09:54.811Z,14.22
2023-04-27T12:13:58.669Z,14.27
2023-04-27T12:18:01.766Z,14.41
2023-04-27T12:22:05.417Z,14.66
2023-04-27T12:26:09.927Z,14.75
2023-04-27T12:30:13.567Z,14.86
2023-04-27T12:34:16.958Z,14.87
2023-04-27T12:38:20.060Z,15.00
2023-04-27T12:42:24.945Z,15.06
2023-04-27T12:46:28.105Z,15.08
2023-04-27T12:50:31.902Z,15.11
2023-04-27T12:54:34.997Z,15.17
2023-04-27T12:58:40.015Z,15.24
2023-04-27T13:02:43.485Z,15.30
2023-04-27T13:06:46.924Z,15.31
2023-04-27T13:10:50.025Z,15.47
2023-04-27T13:14:54.470Z,15.57
2023-04-27T13:18:57.612Z,15.56
2023-04-27T13:23:01.050Z,15.58
2023-04-27T13:27:04.290Z,15.53
2023-04-27T13:31:08.761Z,15.43
2023-04-27T13:35:12.380Z,15.29
2023-04-27T13:39:18.460Z,15.20
2023-04-27T13:43:21.931Z,15.20
2023-04-27T13:47:26.439Z,15.16
2023-04-27T13:51:29.799Z,15.16
2023-04-27T13:55:32.854Z,15.16
2023-04-27T13:59:36.019Z,15.23
2023-04-27T14:03:42.682Z,15.21
2023-04-27T14:07:47.045Z,15.18
2023-04-27T14:11:57.096Z,15.14
2023-04-27T14:16:00.492Z,15.09
2023-04-27T14:20:06.961Z,15.10
2023-04-27T14:24:10.029Z,15.14
2023-04-27T14:28:14.730Z,15.09
2023-04-27T14:32:18.096Z,14.97
2023-04-27T14:36:22.506Z,14.91
2023-04-27T14:40:25.742Z,14.96
2023-04-27T14:44:29.143Z,15.04
2023-04-27T14:48:32.952Z,14.92
2023-04-27T14:52:37.334Z,14.81
2023-04-27T14:56:40.434Z,14.74
2023-04-27T15:00:43.607Z,14.75
2023-04-27T15:04:46.920Z,14.69
2023-04-27T15:08:51.413Z,14.58
2023-04-27T15:12:54.504Z,14.53
2023-04-27T15:16:57.500Z,14.59
2023-04-27T15:21:00.987Z,14.63
2023-04-27T15:25:06.176Z,14.56
2023-04-27T15:29:09.208Z,14.46
2023-04-27T15:33:12.466Z,14.40
2023-04-27T15:37:15.543Z,14.33
2023-04-27T15:41:20.164Z,14.32
2023-04-27T15:45:23.587Z,14.24
2023-04-27T15:49:26.611Z,14.23
2023-04-27T15:53:29.615Z,14.23
2023-04-27T15:57:34.006Z,14.26
2023-04-27T16:01:37.297Z,14.28
2023-04-27T16:05:40.913Z,14.28
2023-04-27T16:09:44.009Z,14.29
2023-04-27T16:13:48.430Z,14.21
2023-04-27T16:17:51.472Z,14.14
2023-04-27T16:21:54.627Z,14.16
2023-04-27T16:25:57.671Z,14.17
2023-04-27T16:30:02.152Z,14.14
2023-04-27T16:34:05.351Z,14.11
2023-04-27T16:38:08.511Z,14.10
2023-04-27T16:42:13.326Z,14.06
2023-04-27T16:46:18.377Z,14.01
2023-04-27T16:50:21.493Z,13.97
2023-04-27T16:54:24.543Z,13.90
2023-04-27T16:58:27.582Z,13.87
2023-04-27T17:02:32.309Z,13.81
2023-04-27T17:06:35.858Z,13.81
2023-04-27T17:10:38.882Z,13.74
2023-04-27T17:14:42.484Z,13.69
2023-04-27T17:18:47.487Z,13.63
2023-04-27T17:22:50.865Z,13.58
2023-04-27T17:26:54.043Z,13.52
2023-04-27T17:30:57.606Z,13.49
2023-04-27T17:35:02.067Z,13.43
2023-04-27T17:39:05.925Z,13.36
2023-04-27T17:43:09.335Z,13.31
2023-04-27T17:47:13.742Z,13.23
2023-04-27T17:51:18.541Z,13.15
2023-04-27T17:55:22.020Z,13.08
2023-04-27T17:59:25.657Z,13.03
2023-04-27T18:03:29.101Z,12.98
2023-04-27T18:07:36.394Z,12.95
2023-04-27T18:11:39.454Z,12.90
2023-04-27T18:15:42.496Z,12.81
2023-04-27T18:19:46.074Z,12.73
2023-04-27T18:23:50.511Z,12.66
2023-04-27T18:27:55.543Z,12.58
2023-04-27T18:32:01.751Z,12.52
2023-04-27T18:36:05.183Z,12.45
2023-04-27T18:40:11.139Z,12.36
2023-04-27T18:44:15.373Z,12.26
2023-04-27T18:48:18.868Z,12.20
2023-04-27T18:52:22.033Z,12.16
2023-04-27T18:56:26.506Z,12.11
2023-04-27T19:00:30.854Z,12.02
2023-04-27T19:04:34.618Z,11.94
2023-04-27T19:08:37.789Z,11.85
2023-04-27T19:12:42.194Z,11.75
2023-04-27T19:16:45.381Z,11.65
2023-04-27T19:20:49.376Z,11.56
2023-04-27T19:24:53.061Z,11.47
2023-04-27T19:28:57.441Z,11.44
2023-04-27T19:33:00.610Z,11.37
2023-04-27T19:37:10.230Z,11.32
2023-04-27T19:41:20.986Z,11.26
2023-04-27T19:45:25.661Z,11.21
2023-04-27T19:49:32.705Z,11.13
2023-04-27T19:53:35.856Z,11.06
2023-04-27T19:57:38.931Z,11.03
2023-04-27T20:01:43.462Z,10.96
2023-04-27T20:05:47.393Z,10.90
2023-04-27T20:09:50.525Z,10.84
2023-04-27T20:13:53.585Z,10.79
2023-04-27T20:17:58.015Z,10.77
2023-04-27T20:22:02.990Z,10.74
2023-04-27T20:26:06.490Z,10.69
2023-04-27T20:30:10.587Z,10.63
2023-04-27T20:34:15.272Z,10.59
2023-04-27T20:38:18.457Z,10.57
2023-04-27T20:42:21.933Z,10.55
2023-04-27T20:46:25.173Z,10.54
2023-04-27T20:50:29.790Z,10.50
2023-04-27T20:54:33.024Z,10.41
2023-04-27T20:58:36.208Z,10.35
2023-04-27T21:02:39.294Z,10.30
2023-04-27T21:06:43.788Z,10.23
2023-04-27T21:10:46.884Z,10.16
2023-04-27T21:14:49.898Z,10.07
2023-04-27T21:18:52.917Z,10.01
2023-04-27T21:22:57.381Z,9.97
2023-04-27T21:27:00.465Z,9.91
2023-04-27T21:31:03.591Z,9.86
2023-04-27T21:35:07.753Z,9.85
2023-04-27T21:39:12.234Z,9.79
2023-04-27T21:43:15.287Z,9.73
2023-04-27T21:47:18.476Z,9.70
2023-04-27T21:51:21.715Z,9.65
2023-04-27T21:55:26.178Z,9.59
2023-04-27T21:59:29.317Z,9.57
2023-04-27T22:03:32.784Z,9.53
2023-04-27T22:07:36.350Z,9.49
2023-04-27T22:11:41.257Z,9.44
2023-04-27T22:15:44.382Z,9.41
2023-04-27T22:19:47.428Z,9.37
2023-04-27T22:23:50.530Z,9.31
2023-04-27T22:27:54.910Z,9.19
2023-04-27T22:31:58.487Z,9.09
2023-04-27T22:36:02.231Z,9.08
2023-04-27T22:40:08.730Z,9.07
2023-04-27T22:44:13.290Z,9.05
2023-04-27T22:48:16.923Z,9.04
2023-04-27T22:52:20.186Z,9.01
2023-04-27T22:56:23.486Z,8.99
2023-04-27T23:00:27.941Z,8.92
2023-04-27T23:04:30.987Z,8.82
2023-04-27T23:08:34.062Z,8.77
2023-04-27T23:12:37.780Z,8.71
2023-04-27T23:16:42.281Z,8.60
2023-04-27T23:20:45.380Z,8.52
2023-04-27T23:24:48.427Z,8.47
2023-04-27T23:28:51.978Z,8.44
2023-04-27T23:32:56.515Z,8.41
2023-04-27T23:37:00.117Z,8.40
2023-04-27T23:41:03.127Z,8.34
2023-04-27T23:45:06.915Z,8.31
2023-04-27T23:49:11.494Z,8.29
2023-04-27T23:53:14.768Z,8.25
2023-04-27T23:57:17.844Z,8.24
